Time;durP1;ratioP1;P1;durP2;ratioP2;P2;SDS_P1;SDS_P2;PMS_P1;PMS_P2;Temp;Humidity;BMP_temperature;BMP_pressure;BME280_temperature;BME280_humidity;BME280_pressure;Samples;Min_cycle;Max_cycle;Signal;HPM_P1;HPM_P2
2022/07/08 00:01:10;;;;;;;27.60;15.80;;;;;;;23.86;62.12;99066.29;25106;1313;3050904;-64
2022/07/08 00:03:39;;;;;;;23.00;15.70;;;;;;;23.82;62.14;99065.73;25100;1313;3026527;-67
2022/07/08 00:06:08;;;;;;;23.50;15.80;;;;;;;23.78;62.42;99066.55;25120;1313;3058550;-64
2022/07/08 00:08:37;;;;;;;26.80;16.30;;;;;;;23.75;62.55;99066.80;25166;1315;3026887;-69
2022/07/08 00:11:07;;;;;;;22.70;15.20;;;;;;;23.72;62.24;99069.26;25081;1313;3054145;-65
2022/07/08 00:13:37;;;;;;;27.60;15.10;;;;;;;23.71;62.08;99066.55;25097;1313;3026707;-63
2022/07/08 00:16:07;;;;;;;25.10;13.80;;;;;;;23.68;62.08;99067.39;25076;1315;3026747;-67
2022/07/08 00:18:37;;;;;;;22.50;14.70;;;;;;;23.65;61.94;99067.75;25110;1315;3054578;-70
2022/07/08 00:21:06;;;;;;;25.60;15.00;;;;;;;23.62;62.11;99069.24;25132;1313;3026522;-66
2022/07/08 00:23:35;;;;;;;23.30;14.40;;;;;;;23.61;61.83;99062.02;25150;1313;3054398;-64
2022/07/08 00:26:05;;;;;;;22.80;13.10;;;;;;;23.58;61.86;99059.09;25104;1313;3026194;-65
2022/07/08 00:28:34;;;;;;;21.40;13.60;;;;;;;23.56;61.86;99058.91;25085;1313;3026798;-68
2022/07/08 00:31:04;;;;;;;22.40;14.10;;;;;;;23.55;61.82;99060.79;25042;1315;3053798;-68
2022/07/08 00:33:34;;;;;;;20.60;13.40;;;;;;;23.55;61.82;99066.92;25064;1313;3026638;-71
2022/07/08 00:36:03;;;;;;;16.30;12.90;;;;;;;23.54;61.79;99066.64;25097;1313;3027342;-64
2022/07/08 00:38:32;;;;;;;21.60;12.70;;;;;;;23.54;61.32;99066.63;25068;1314;3026528;-65
2022/07/08 00:41:01;;;;;;;25.10;12.70;;;;;;;23.53;61.27;99062.25;25062;1315;3026910;-69
2022/07/08 00:43:39;;;;;;;21.90;12.50;;;;;;;23.52;61.30;99060.10;25139;1313;3058598;-67
2022/07/08 00:46:08;;;;;;;23.30;13.30;;;;;;;23.50;61.75;99065.19;25056;1315;3047624;-68
2022/07/08 00:48:37;;;;;;;24.10;11.80;;;;;;;23.45;61.43;99066.25;25122;1313;3026697;-69
2022/07/08 00:51:08;;;;;;;22.70;12.40;;;;;;;23.42;61.36;99066.12;25184;1313;3056437;-70
2022/07/08 00:53:39;;;;;;;20.10;12.70;;;;;;;23.39;61.85;99065.79;25176;1313;3026662;-63
2022/07/08 00:56:08;;;;;;;20.50;12.10;;;;;;;23.36;61.80;99062.67;25088;1315;3026875;-66
2022/07/08 00:58:39;;;;;;;18.50;12.00;;;;;;;23.34;61.70;99058.30;25082;1315;3026730;-66
2022/07/08 01:01:08;;;;;;;18.10;11.70;;;;;;;23.32;61.78;99062.72;25130;1315;3026077;-71
2022/07/08 01:03:38;;;;;;;17.70;11.50;;;;;;;23.29;62.15;99058.93;25066;1313;3026945;-68
2022/07/08 01:06:07;;;;;;;13.60;10.80;;;;;;;23.26;62.09;99059.04;25048;1318;3026984;-67
2022/07/08 01:08:38;;;;;;;19.60;11.50;;;;;;;23.25;61.83;99059.52;25129;1314;3071324;-65
2022/07/08 01:11:08;;;;;;;17.40;11.30;;;;;;;23.23;62.21;99064.42;25053;1315;3026468;-66
2022/07/08 01:13:37;;;;;;;17.00;11.60;;;;;;;23.21;62.29;99062.38;25082;1315;3026593;-63
2022/07/08 01:16:07;;;;;;;17.80;11.90;;;;;;;23.19;62.72;99067.32;25092;1315;3026446;-67
2022/07/08 01:18:36;;;;;;;21.20;13.00;;;;;;;23.15;62.68;99066.45;25106;1315;3050520;-65
2022/07/08 01:21:05;;;;;;;20.30;12.20;;;;;;;23.13;62.64;99063.48;25074;1315;3026149;-65
2022/07/08 01:23:34;;;;;;;24.30;13.80;;;;;;;23.12;62.82;99060.36;25080;1315;3026186;-63
2022/07/08 01:26:09;;;;;;;23.60;11.20;;;;;;;23.14;63.26;99060.31;25055;1315;3047081;-62
2022/07/08 01:28:42;;;;;;;14.80;11.70;;;;;;;23.76;62.40;99056.84;25098;1315;3052684;-68
2022/07/08 01:31:11;;;;;;;18.50;11.40;;;;;;;24.34;60.48;99054.53;25094;1315;3026687;-67
2022/07/08 01:33:41;;;;;;;19.60;12.20;;;;;;;24.50;59.95;99052.56;25149;1315;3026815;-66
2022/07/08 01:36:11;;;;;;;21.10;12.60;;;;;;;24.43;59.92;99055.19;25095;1315;3026287;-66
2022/07/08 01:38:42;;;;;;;16.90;11.60;;;;;;;24.29;59.97;99058.91;25067;1315;3026762;-65
2022/07/08 01:41:11;;;;;;;19.10;13.00;;;;;;;24.12;60.21;99059.02;25090;1315;3026616;-63
2022/07/08 01:43:40;;;;;;;21.10;13.00;;;;;;;23.91;60.94;99056.44;25084;1315;3028554;-66
2022/07/08 01:46:11;;;;;;;24.00;12.10;;;;;;;23.78;61.05;99059.18;25130;1315;3054750;-68
2022/07/08 01:48:40;;;;;;;25.70;13.60;;;;;;;23.69;61.12;99058.33;25067;1315;3030315;-68
2022/07/08 01:51:13;;;;;;;20.70;12.30;;;;;;;23.61;61.29;99061.99;25031;1315;3027218;-67
2022/07/08 01:53:43;;;;;;;19.70;12.20;;;;;;;23.58;60.80;99059.10;25092;1316;3027647;-67
2022/07/08 01:56:12;;;;;;;22.10;11.80;;;;;;;23.58;60.45;99062.35;25068;1315;3026764;-68
2022/07/08 01:58:41;;;;;;;15.20;10.10;;;;;;;23.57;60.22;99060.08;25059;1313;3069707;-68
2022/07/08 02:01:10;;;;;;;15.70;10.70;;;;;;;23.60;58.20;99054.88;25127;1315;3026583;-67
2022/07/08 02:03:39;;;;;;;19.00;11.60;;;;;;;23.64;57.54;99062.20;25085;1315;3051039;-67
2022/07/08 02:06:08;;;;;;;18.90;11.50;;;;;;;23.69;57.80;99059.43;25068;1315;3027200;-66
2022/07/08 02:08:38;;;;;;;17.40;9.30;;;;;;;23.72;57.31;99064.80;25173;1315;3055016;-68
2022/07/08 02:13:56;;;;;;;18.80;11.70;;;;;;;23.75;56.80;99063.84;25041;1315;3071500;-66
2022/07/08 02:16:25;;;;;;;23.70;9.60;;;;;;;23.78;57.23;99069.61;25095;1315;3027402;-67
2022/07/08 02:18:54;;;;;;;14.40;9.30;;;;;;;23.78;55.62;99065.86;25150;1315;3054772;-67
2022/07/08 02:21:24;;;;;;;16.10;9.60;;;;;;;23.81;56.00;99070.10;25088;1315;3026690;-65
2022/07/08 02:23:53;;;;;;;24.90;11.00;;;;;;;23.85;56.57;99077.58;25099;1315;3026517;-68
2022/07/08 02:26:23;;;;;;;16.70;10.00;;;;;;;23.86;56.97;99076.38;25098;1315;3053573;-66
2022/07/08 03:10:07;;;;;;;18.50;11.50;;;;;;;23.74;65.06;99111.70;25028;1315;3055270;-66
2022/07/08 03:16:21;;;;;;;15.60;8.60;;;;;;;23.62;58.79;99110.05;25091;1315;3050240;-65
2022/07/08 03:18:50;;;;;;;17.70;9.20;;;;;;;23.64;58.47;99110.81;25107;1315;3026673;-66
2022/07/08 03:21:19;;;;;;;18.00;9.30;;;;;;;23.65;57.68;99107.48;25068;1315;3059467;-71
2022/07/08 03:23:48;;;;;;;20.80;9.90;;;;;;;23.67;57.28;99109.39;25144;1315;3026516;-68
2022/07/08 03:26:18;;;;;;;17.70;9.10;;;;;;;23.72;56.62;99112.23;25069;1315;3055063;-68
2022/07/08 03:28:47;;;;;;;19.10;8.20;;;;;;;23.74;54.38;99114.98;25052;1315;3026776;-67
2022/07/08 03:31:16;;;;;;;24.40;8.50;;;;;;;23.77;54.55;99118.70;25105;1315;3054445;-67
2022/07/08 03:33:45;;;;;;;14.90;8.90;;;;;;;23.77;54.93;99119.25;25096;1315;3028699;-65
2022/07/08 03:36:14;;;;;;;18.70;9.10;;;;;;;23.78;55.68;99121.39;25078;1315;3048569;-67
2022/07/08 03:38:44;;;;;;;18.10;9.10;;;;;;;23.79;55.22;99122.73;25052;1315;3026819;-66
2022/07/08 03:41:23;;;;;;;20.50;9.80;;;;;;;23.80;55.73;99121.52;25113;1315;3026403;-68
2022/07/08 03:43:54;;;;;;;15.50;8.90;;;;;;;23.85;55.50;99121.02;25081;1315;3049682;-66
2022/07/08 03:46:24;;;;;;;17.60;9.00;;;;;;;23.87;54.81;99119.45;25153;1315;3028666;-68
2022/07/08 03:48:53;;;;;;;18.90;8.60;;;;;;;23.91;53.47;99121.21;25030;1315;3068754;-67
2022/07/08 03:51:23;;;;;;;18.50;8.60;;;;;;;23.91;52.61;99123.67;25064;1315;3026382;-67
2022/07/08 03:53:52;;;;;;;25.30;8.60;;;;;;;23.94;51.80;99122.70;25127;1315;3026529;-65
2022/07/08 03:56:21;;;;;;;14.70;8.00;;;;;;;24.01;50.90;99126.45;25080;1315;3026741;-70
2022/07/08 03:58:51;;;;;;;17.10;8.10;;;;;;;24.06;50.55;99125.02;25110;1316;3051552;-63
2022/07/08 04:01:20;;;;;;;20.90;7.80;;;;;;;24.11;49.95;99121.89;25087;1315;3028816;-66
2022/07/08 04:03:50;;;;;;;16.70;7.50;;;;;;;24.19;49.83;99125.52;25119;1316;3070397;-64
2022/07/08 04:06:19;;;;;;;15.10;8.20;;;;;;;24.25;49.98;99128.83;25131;1313;3026720;-66
2022/07/08 04:08:51;;;;;;;16.30;8.50;;;;;;;24.29;49.60;99133.15;25094;1315;3050989;-68
2022/07/08 04:11:20;;;;;;;17.10;7.70;;;;;;;24.36;49.65;99136.04;25144;1315;3026408;-67
2022/07/08 04:13:49;;;;;;;15.40;6.60;;;;;;;24.44;48.85;99133.73;25094;1316;3052199;-69
2022/07/08 04:16:18;;;;;;;17.50;6.40;;;;;;;24.52;47.15;99136.02;25105;1315;3026989;-69
2022/07/08 04:18:48;;;;;;;12.40;5.80;;;;;;;24.57;46.40;99132.95;25083;1315;3026370;-68
2022/07/08 04:21:17;;;;;;;13.40;5.70;;;;;;;24.62;45.78;99128.74;25059;1315;3028275;-70
2022/07/08 04:23:46;;;;;;;14.50;6.10;;;;;;;24.69;45.36;99130.73;25100;1315;3026436;-65
2022/07/08 04:26:15;;;;;;;17.80;6.40;;;;;;;24.77;45.34;99134.02;25043;1315;3026496;-69
2022/07/08 04:28:45;;;;;;;12.60;6.50;;;;;;;24.84;45.42;99132.99;25072;1318;3051050;-65
2022/07/08 04:31:14;;;;;;;12.10;6.60;;;;;;;24.88;45.64;99130.64;25122;1315;3026731;-63
2022/07/08 04:33:41;;;;;;;12.10;6.60;;;;;;;24.94;46.34;99133.90;22531;1315;13400417;-64
2022/07/08 04:36:11;;;;;;;19.40;8.70;;;;;;;25.15;46.62;99133.52;25095;1315;3054791;-67
2022/07/08 04:38:40;;;;;;;18.30;8.10;;;;;;;25.40;46.56;99137.42;25114;1315;3026378;-66
2022/07/08 04:41:09;;;;;;;19.30;7.90;;;;;;;25.37;47.16;99137.25;25118;1315;3050481;-66
2022/07/08 04:43:38;;;;;;;22.00;8.10;;;;;;;25.39;47.32;99138.25;25083;1315;3026404;-70
2022/07/08 04:46:08;;;;;;;18.50;8.70;;;;;;;25.42;47.04;99139.84;25040;1315;3050935;-67
2022/07/08 04:48:37;;;;;;;13.20;7.10;;;;;;;25.47;47.02;99141.70;25118;1315;3026110;-66
2022/07/08 04:51:06;;;;;;;17.20;7.70;;;;;;;25.52;46.96;99140.35;25046;1318;3069411;-65
2022/07/08 04:53:36;;;;;;;26.30;9.10;;;;;;;25.55;47.43;99142.27;25060;1315;3027339;-66
2022/07/08 04:56:05;;;;;;;20.80;8.80;;;;;;;25.61;47.32;99143.66;25101;1315;3026708;-65
2022/07/08 04:58:35;;;;;;;21.50;8.70;;;;;;;25.66;47.47;99147.88;25105;1315;3069166;-68
2022/07/08 05:01:04;;;;;;;18.60;7.70;;;;;;;25.72;47.24;99147.87;25145;1315;3029711;-66
2022/07/08 05:03:33;;;;;;;19.00;7.30;;;;;;;25.78;46.97;99147.52;25103;1315;3053034;-68
2022/07/08 05:06:02;;;;;;;15.80;6.20;;;;;;;25.82;45.91;99145.09;25095;1314;3026605;-68
2022/07/08 05:08:31;;;;;;;15.80;5.50;;;;;;;25.86;45.07;99143.54;25123;1315;3054647;-68
2022/07/08 05:11:00;;;;;;;13.70;6.30;;;;;;;25.93;44.57;99148.32;25126;1315;3029512;-66
2022/07/08 05:13:30;;;;;;;18.40;4.60;;;;;;;25.98;43.15;99147.13;25137;1315;3050968;-66
2022/07/08 05:16:00;;;;;;;12.20;4.70;;;;;;;26.06;42.20;99150.02;25168;1315;3026655;-70
2022/07/08 05:18:29;;;;;;;15.60;3.90;;;;;;;26.14;40.79;99150.96;25142;1315;3026518;-65
2022/07/08 05:20:59;;;;;;;16.40;3.90;;;;;;;26.21;40.41;99148.80;25123;1315;3029778;-64
2022/07/08 05:23:29;;;;;;;13.10;3.60;;;;;;;26.26;38.87;99151.58;25082;1315;3026290;-67
2022/07/08 05:25:58;;;;;;;10.60;4.00;;;;;;;26.28;38.78;99150.73;25113;1315;3026864;-65
2022/07/08 05:28:27;;;;;;;12.00;4.20;;;;;;;26.35;38.19;99150.70;25074;1315;3067185;-67
2022/07/08 05:30:56;;;;;;;16.50;4.10;;;;;;;26.41;38.06;99152.45;25148;1315;3026319;-68
2022/07/08 05:33:25;;;;;;;13.80;3.80;;;;;;;26.46;38.33;99152.36;25055;1315;3050838;-64
2022/07/08 05:35:54;;;;;;;14.00;3.70;;;;;;;26.51;37.95;99152.88;25110;1315;3026205;-66
2022/07/08 05:38:23;;;;;;;10.80;3.30;;;;;;;26.57;37.70;99152.64;25147;1315;3027386;-67
2022/07/08 05:40:53;;;;;;;11.20;3.50;;;;;;;26.64;37.86;99148.00;25105;1315;3051373;-67
2022/07/08 05:43:22;;;;;;;15.00;4.30;;;;;;;26.73;37.84;99150.07;25115;1315;3026629;-66
2022/07/08 05:45:51;;;;;;;10.10;3.90;;;;;;;26.82;37.54;99147.30;25132;1315;3026413;-68
2022/07/08 05:48:21;;;;;;;14.70;4.50;;;;;;;26.88;38.05;99145.23;25109;1315;3052082;-68
2022/07/08 05:50:50;;;;;;;16.70;4.20;;;;;;;26.95;37.97;99147.21;25134;1315;3027389;-68
2022/07/08 05:53:20;;;;;;;15.70;4.20;;;;;;;27.04;37.82;99140.83;25091;1315;3028793;-69
2022/07/08 05:55:50;;;;;;;12.20;3.70;;;;;;;27.10;36.95;99140.95;25186;1315;3054427;-64
2022/07/08 05:59:29;;;;;;;18.20;4.00;;;;;;;27.27;37.09;99146.89;31592;1319;3026696;-68
2022/07/08 06:01:59;;;;;;;13.10;4.50;;;;;;;27.57;37.12;99140.19;24965;1319;3026837;-65
2022/07/08 06:04:28;;;;;;;11.80;3.70;;;;;;;27.84;36.45;99147.64;25017;1319;3027167;-68
2022/07/08 06:06:58;;;;;;;22.40;4.10;;;;;;;27.84;36.26;99149.81;25024;1319;3051376;-64
2022/07/08 06:09:27;;;;;;;20.70;4.40;;;;;;;27.84;35.98;99146.48;24985;1319;3027402;-70
2022/07/08 06:11:56;;;;;;;15.00;4.30;;;;;;;27.85;36.64;99150.01;24898;1319;3247737;-67
2022/07/08 06:14:26;;;;;;;14.30;4.20;;;;;;;27.85;37.00;99149.85;25094;1319;3026410;-66
2022/07/08 06:16:57;;;;;;;9.50;4.10;;;;;;;27.90;36.74;99150.62;25090;1319;3028796;-68
2022/07/08 06:19:26;;;;;;;11.00;3.90;;;;;;;27.95;37.07;99151.97;25113;1319;3026534;-67
2022/07/08 06:21:56;;;;;;;15.90;4.30;;;;;;;28.00;37.34;99154.65;25115;1319;3026729;-65
2022/07/08 06:24:25;;;;;;;14.50;4.10;;;;;;;28.01;37.74;99157.20;25055;1319;3052777;-67
2022/07/08 06:26:56;;;;;;;13.40;4.20;;;;;;;28.04;37.80;99154.41;25188;1315;3027823;-64
2022/07/08 06:29:26;;;;;;;11.10;3.90;;;;;;;28.05;37.54;99159.52;25146;1316;3026659;-66
2022/07/08 06:31:55;;;;;;;12.40;3.30;;;;;;;28.03;36.31;99161.06;25123;1313;3027899;-68
2022/07/08 06:34:24;;;;;;;12.50;4.00;;;;;;;28.07;36.19;99164.77;25178;1313;3054712;-66
2022/07/08 06:36:53;;;;;;;8.10;3.60;;;;;;;28.10;36.00;99164.02;25110;1313;3026514;-68
2022/07/08 06:39:22;;;;;;;10.00;3.50;;;;;;;28.19;35.71;99163.55;25096;1316;3051593;-66
2022/07/08 06:41:51;;;;;;;13.00;4.30;;;;;;;28.26;35.41;99164.48;25122;1313;3026816;-66
2022/07/08 06:44:20;;;;;;;12.20;3.90;;;;;;;28.36;35.52;99168.11;25120;1316;3056423;-66
2022/07/08 06:46:49;;;;;;;10.40;3.40;;;;;;;28.48;35.14;99166.17;25169;1313;3026469;-65
2022/07/08 06:49:18;;;;;;;19.90;4.20;;;;;;;28.54;34.89;99163.06;25274;1317;3051686;-66
2022/07/08 06:51:47;;;;;;;13.00;3.00;;;;;;;28.59;34.79;99161.28;25292;1314;3028908;-65
2022/07/08 06:54:35;;;;;;;17.80;3.20;;;;;;;28.66;33.54;99163.27;25259;1313;3054230;-68
2022/07/08 06:57:09;;;;;;;12.80;4.00;;;;;;;28.72;33.36;99164.55;25115;1316;3054941;-69
2022/07/08 06:59:38;;;;;;;10.10;3.50;;;;;;;28.83;33.26;99162.48;25165;1316;3027015;-68
2022/07/08 07:02:07;;;;;;;8.90;2.40;;;;;;;28.88;31.74;99158.64;25077;1314;3026391;-65
2022/07/08 07:04:37;;;;;;;13.90;2.80;;;;;;;28.98;31.35;99162.42;25120;1313;3026535;-67
2022/07/08 07:07:06;;;;;;;8.80;2.70;;;;;;;29.07;31.79;99153.95;25144;1313;3027296;-67
2022/07/08 07:09:35;;;;;;;10.10;2.80;;;;;;;29.14;31.23;99152.42;25144;1316;3049486;-66
2022/07/08 07:12:06;;;;;;;12.20;3.10;;;;;;;29.14;31.03;99150.56;25114;1316;3026428;-66
2022/07/08 07:14:35;;;;;;;12.80;2.70;;;;;;;29.14;31.05;99146.23;25106;1316;3058452;-68
2022/07/08 07:17:05;;;;;;;16.20;3.10;;;;;;;29.18;30.91;99148.13;25130;1312;3027420;-67
2022/07/08 07:19:34;;;;;;;16.30;2.70;;;;;;;29.20;31.16;99145.01;25176;1316;3026609;-66
2022/07/08 07:22:04;;;;;;;13.00;3.10;;;;;;;29.33;31.35;99143.96;25158;1316;3026933;-67
2022/07/08 07:24:33;;;;;;;11.70;3.20;;;;;;;29.44;30.81;99145.96;25109;1316;3051281;-65
2022/07/08 07:27:02;;;;;;;12.20;2.70;;;;;;;29.46;29.49;99143.61;25055;1316;3026505;-61
2022/07/08 07:29:31;;;;;;;10.70;2.80;;;;;;;29.56;29.82;99142.34;25158;1316;3056321;-68
2022/07/08 07:32:01;;;;;;;18.50;2.70;;;;;;;29.68;29.43;99143.79;25134;1316;3026553;-65
2022/07/08 07:34:30;;;;;;;12.00;2.90;;;;;;;29.76;29.55;99144.90;25179;1316;3052145;-65
2022/07/08 07:37:00;;;;;;;11.50;2.70;;;;;;;29.86;29.45;99142.77;25095;1313;3027150;-66
2022/07/08 07:39:29;;;;;;;19.50;2.40;;;;;;;30.00;29.25;99137.73;25092;1316;3026618;-66
2022/07/08 07:41:58;;;;;;;11.80;2.70;;;;;;;30.06;28.65;99139.89;25032;1315;3051732;-65
2022/07/08 07:44:28;;;;;;;14.70;3.50;;;;;;;30.13;28.69;99137.46;25134;1313;3026365;-68
2022/07/08 07:46:57;;;;;;;12.20;2.80;;;;;;;30.19;27.97;99138.64;25163;1316;3028278;-66
2022/07/08 07:49:27;;;;;;;16.10;2.60;;;;;;;30.25;27.59;99137.40;25144;1316;3051692;-67
2022/07/08 07:51:56;;;;;;;16.90;2.50;;;;;;;30.36;26.81;99137.04;25225;1316;3027269;-66
2022/07/08 07:54:25;;;;;;;11.50;2.40;;;;;;;30.44;26.66;99136.09;25090;1316;3052028;-65
2022/07/08 07:56:54;;;;;;;9.50;2.00;;;;;;;30.52;26.16;99132.02;25146;1315;3026399;-70
2022/07/08 07:59:23;;;;;;;8.30;2.30;;;;;;;30.56;24.08;99130.63;25205;1316;3051375;-74
2022/07/08 08:01:52;;;;;;;8.00;2.40;;;;;;;30.63;24.82;99130.55;25177;1315;3027123;-66
2022/07/08 08:04:21;;;;;;;12.20;2.80;;;;;;;30.74;25.43;99134.17;25099;1315;3067748;-72
2022/07/08 08:06:51;;;;;;;12.50;2.40;;;;;;;30.77;25.16;99135.88;25090;1316;3026786;-68
2022/07/08 08:09:46;;;;;;;12.80;2.20;;;;;;;30.85;25.33;99131.99;25147;1315;3054888;-67
2022/07/08 08:12:17;;;;;;;13.20;2.30;;;;;;;30.90;25.02;99131.54;25166;1316;3026907;-68
2022/07/08 08:14:46;;;;;;;14.20;2.40;;;;;;;30.98;24.67;99124.82;25217;1315;3026563;-65
2022/07/08 08:17:15;;;;;;;13.40;2.20;;;;;;;31.06;24.56;99123.69;25281;1315;3051549;-65
2022/07/08 08:19:44;;;;;;;10.00;1.90;;;;;;;31.15;24.57;99122.00;25298;1315;3026545;-65
2022/07/08 08:22:13;;;;;;;14.20;2.50;;;;;;;31.26;25.04;99122.61;25277;1316;3048560;-68
2022/07/08 08:24:42;;;;;;;12.10;2.40;;;;;;;31.40;24.51;99123.69;25343;1315;3026477;-66
2022/07/08 08:27:12;;;;;;;4.90;1.80;;;;;;;31.51;23.44;99119.23;25250;1315;3069720;-65
2022/07/08 08:29:41;;;;;;;17.50;2.30;;;;;;;31.67;23.18;99113.30;25215;1316;3026858;-67
2022/07/08 08:32:10;;;;;;;22.50;2.80;;;;;;;31.84;23.16;99113.38;25219;1316;3027114;-67
2022/07/08 08:34:40;;;;;;;8.90;1.90;;;;;;;31.95;23.51;99114.35;25250;1316;3070881;-65
2022/07/08 08:37:09;;;;;;;10.80;2.00;;;;;;;32.05;23.63;99116.98;25169;1315;3026269;-66
2022/07/08 08:39:39;;;;;;;10.80;2.20;;;;;;;32.15;23.19;99111.37;25201;1315;3051112;-67
2022/07/08 08:42:08;;;;;;;14.00;2.40;;;;;;;32.17;22.56;99106.08;25211;1316;3026837;-65
2022/07/08 08:44:37;;;;;;;7.30;2.10;;;;;;;32.13;22.79;99108.05;25162;1316;3026739;-66
2022/07/08 08:47:06;;;;;;;11.60;2.50;;;;;;;32.23;22.85;99101.19;25348;1315;3026417;-71
2022/07/08 08:49:35;;;;;;;7.70;1.90;;;;;;;32.30;22.78;99101.59;25161;1316;3068403;-64
2022/07/08 08:52:05;;;;;;;10.70;2.10;;;;;;;32.35;23.07;99101.53;25095;1316;3026780;-63
2022/07/08 08:54:35;;;;;;;10.10;2.20;;;;;;;32.38;22.16;99097.06;25207;1315;3050302;-61
2022/07/08 08:57:06;;;;;;;7.00;2.00;;;;;;;32.54;21.72;99102.77;25152;1315;3026690;-66
2022/07/08 08:59:36;;;;;;;14.10;2.20;;;;;;;32.70;21.82;99101.50;25099;1315;3026961;-65
2022/07/08 09:02:06;;;;;;;6.20;1.90;;;;;;;32.82;21.58;99099.33;25188;1316;3026515;-64
2022/07/08 09:04:36;;;;;;;7.90;2.50;;;;;;;32.92;22.09;99100.52;25288;1316;3026760;-62
2022/07/08 09:07:05;;;;;;;12.90;3.00;;;;;;;33.00;22.06;99096.66;25134;1315;3029491;-64
2022/07/08 09:09:34;;;;;;;7.70;1.80;;;;;;;32.99;21.87;99095.61;25116;1316;3051091;-61
2022/07/08 09:12:23;;;;;;;9.60;2.10;;;;;;;33.07;21.27;99095.62;25105;1316;3026743;-60
2022/07/08 09:14:54;;;;;;;8.20;1.50;;;;;;;33.03;20.41;99091.64;25077;1316;3049658;-64
2022/07/08 09:17:24;;;;;;;9.90;1.80;;;;;;;33.04;20.36;99090.89;25163;1316;3027167;-60
2022/07/08 09:19:53;;;;;;;9.50;2.20;;;;;;;33.13;20.14;99091.02;25165;1316;3027637;-61
2022/07/08 09:22:23;;;;;;;10.10;1.90;;;;;;;33.27;20.30;99090.14;25310;1315;3026393;-62
2022/07/08 09:24:54;;;;;;;14.50;2.10;;;;;;;33.39;20.12;99090.69;25197;1316;3054509;-62
2022/07/08 09:27:23;;;;;;;9.40;1.90;;;;;;;33.43;19.85;99084.80;25111;1316;3028990;-61
2022/07/08 09:30:00;;;;;;;14.80;1.60;;;;;;;33.34;19.60;99083.66;25082;1316;3026652;-61
2022/07/08 09:32:28;;;;;;;8.60;1.60;;;;;;;33.18;19.55;99087.05;25117;1316;3052480;-60
2022/07/08 09:34:57;;;;;;;5.90;1.80;;;;;;;33.16;19.78;99084.53;25118;1316;3026500;-62
2022/07/08 09:37:26;;;;;;;7.50;2.00;;;;;;;33.25;19.93;99083.85;25162;1316;3048754;-62
2022/07/08 09:39:55;;;;;;;4.50;1.70;;;;;;;33.33;19.55;99084.95;25104;1316;3026436;-62
2022/07/08 09:42:24;;;;;;;9.50;1.60;;;;;;;33.39;19.58;99087.31;25053;1316;3068877;-60
2022/07/08 09:44:54;;;;;;;4.60;1.70;;;;;;;33.35;19.27;99086.48;25104;1316;3026858;-63
2022/07/08 09:47:23;;;;;;;9.30;1.80;;;;;;;33.40;19.25;99088.52;25178;1316;3026887;-62
2022/07/08 09:49:52;;;;;;;10.60;2.00;;;;;;;33.50;19.69;99088.64;25196;1315;3071130;-62
2022/07/08 09:52:22;;;;;;;23.30;2.10;;;;;;;33.52;19.27;99087.48;25182;1315;3026353;-62
2022/07/08 09:55:00;;;;;;;6.80;1.30;;;;;;;33.68;19.71;99082.88;25445;1314;3049887;-59
2022/07/08 09:57:30;;;;;;;8.10;2.00;;;;;;;33.79;19.52;99080.66;25258;1316;3070554;-60
2022/07/08 09:59:59;;;;;;;10.80;2.20;;;;;;;33.74;18.88;99076.30;25228;1316;3028512;-59
2022/07/08 10:02:29;;;;;;;5.50;2.10;;;;;;;33.71;19.06;99075.10;25193;1315;3026617;-63
2022/07/08 10:04:58;;;;;;;6.70;1.60;;;;;;;33.74;19.18;99075.65;25054;1316;3026767;-61
2022/07/08 10:07:27;;;;;;;7.90;1.60;;;;;;;33.88;19.65;99073.27;25132;1316;3049390;-60
2022/07/08 10:09:56;;;;;;;11.00;1.80;;;;;;;34.03;19.19;99077.71;25166;1316;3026799;-60
2022/07/08 10:12:25;;;;;;;8.80;1.70;;;;;;;34.15;18.95;99070.20;25115;1315;3069233;-60
2022/07/08 10:14:55;;;;;;;5.90;2.00;;;;;;;34.16;18.93;99071.41;25130;1315;3026759;-61
2022/07/08 10:17:28;;;;;;;8.40;2.30;;;;;;;34.10;18.33;99075.02;25145;1316;3029024;-62
2022/07/08 10:19:57;;;;;;;8.80;1.40;;;;;;;34.20;18.32;99070.42;25122;1316;3026517;-63
2022/07/08 10:22:26;;;;;;;4.20;1.30;;;;;;;34.30;18.22;99070.66;25191;1315;3048508;-62
2022/07/08 10:24:55;;;;;;;5.60;1.30;;;;;;;34.38;18.33;99067.98;25210;1315;3026772;-61
2022/07/08 10:27:24;;;;;;;5.00;1.60;;;;;;;34.37;17.79;99064.20;25212;1315;3070867;-59
2022/07/08 10:30:11;;;;;;;4.10;1.50;;;;;;;34.40;18.24;99061.13;25334;1316;3026549;-60
2022/07/08 10:32:48;;;;;;;7.00;1.80;;;;;;;34.59;18.06;99059.74;25250;1315;3051339;-62
2022/07/08 10:35:19;;;;;;;12.50;1.60;;;;;;;34.60;17.39;99056.59;25117;1316;3069163;-61
2022/07/08 10:37:55;;;;;;;7.60;1.60;;;;;;;34.61;17.53;99052.51;25122;1315;3026601;-59
2022/07/08 10:40:42;;;;;;;6.00;1.90;;;;;;;34.52;17.79;99051.84;25173;1316;3053884;-62
2022/07/08 10:43:27;;;;;;;9.60;1.70;;;;;;;34.58;18.31;99055.27;25254;1315;3052294;-60
2022/07/08 10:46:16;;;;;;;8.50;1.50;;;;;;;34.70;18.10;99050.98;25188;1314;3057501;-60
2022/07/08 10:48:52;;;;;;;9.90;2.00;;;;;;;34.74;18.11;99051.98;25040;1315;3050120;-62
2022/07/08 10:51:24;;;;;;;4.60;2.10;;;;;;;34.77;18.39;99053.02;25127;1316;3052587;-63
2022/07/08 10:53:54;;;;;;;5.10;1.70;;;;;;;34.90;17.90;99045.16;25219;1316;3029254;-60
2022/07/08 10:56:49;;;;;;;6.00;1.60;;;;;;;35.00;17.82;99047.05;25153;1315;3026388;-60
2022/07/08 10:59:22;;;;;;;4.90;1.30;;;;;;;35.09;17.53;99039.67;25071;1316;3049254;-60
2022/07/08 11:02:00;;;;;;;8.50;1.70;;;;;;;35.16;17.44;99039.87;25229;1315;3026494;-60
2022/07/08 11:04:34;;;;;;;9.20;2.00;;;;;;;35.17;17.73;99044.30;25257;1316;3053570;-61
2022/07/08 11:10:01;;;;;;;5.50;1.60;;;;;;;35.47;17.46;99040.79;25104;1315;3050190;-60
2022/07/08 11:12:35;;;;;;;4.50;1.80;;;;;;;35.48;17.53;99034.20;25165;1315;3055525;-63
2022/07/08 11:15:18;;;;;;;6.60;2.40;;;;;;;35.41;17.23;99038.20;25233;1316;3052031;-61
2022/07/08 11:17:49;;;;;;;5.30;1.60;;;;;;;35.48;17.35;99039.49;25154;1315;3071168;-60
2022/07/08 11:20:19;;;;;;;5.30;1.60;;;;;;;35.53;17.69;99036.77;25158;1316;3026868;-63
2022/07/08 11:22:48;;;;;;;7.60;1.50;;;;;;;35.53;17.33;99028.58;25249;1315;3026390;-61
2022/07/08 11:25:20;;;;;;;5.80;1.90;;;;;;;35.50;17.53;99026.98;25150;1315;3068793;-61
2022/07/08 11:27:50;;;;;;;7.90;2.10;;;;;;;35.51;17.95;99027.10;24997;1315;3026289;-62
2022/07/08 11:30:19;;;;;;;9.40;1.90;;;;;;;35.58;18.03;99027.83;25181;1315;3027929;-62
2022/07/08 11:32:48;;;;;;;13.80;1.60;;;;;;;35.77;17.25;99026.30;25110;1315;3026827;-59
2022/07/08 11:35:21;;;;;;;4.20;2.20;;;;;;;35.94;16.85;99027.16;25139;1315;3049335;-60
2022/07/08 11:37:50;;;;;;;6.50;1.80;;;;;;;36.01;16.27;99024.66;25300;1315;3026593;-62
2022/07/08 11:40:20;;;;;;;7.30;1.80;;;;;;;36.10;16.37;99020.56;25132;1315;3026155;-63
2022/07/08 11:42:48;;;;;;;9.60;1.90;;;;;;;36.16;16.69;99017.28;25234;1315;3026843;-60
2022/07/08 11:45:18;;;;;;;11.80;1.80;;;;;;;36.15;17.10;99015.21;25123;1316;3054479;-62
2022/07/08 11:47:48;;;;;;;6.40;1.90;;;;;;;36.28;16.87;99010.73;25125;1315;3026655;-61
2022/07/08 11:50:17;;;;;;;7.30;1.90;;;;;;;36.30;17.09;99009.09;25127;1315;3027049;-62
2022/07/08 11:52:48;;;;;;;8.80;2.10;;;;;;;36.39;17.02;99009.39;25034;1316;3027588;-62
2022/07/08 11:55:17;;;;;;;9.60;1.80;;;;;;;36.52;17.33;99009.08;25092;1315;3026716;-62
2022/07/08 11:57:46;;;;;;;10.40;2.30;;;;;;;36.65;17.15;99007.15;25132;1314;3058320;-61
2022/07/08 12:00:15;;;;;;;9.00;2.10;;;;;;;36.72;16.84;99006.60;25136;1315;3026381;-60
2022/07/08 12:02:44;;;;;;;8.40;2.60;;;;;;;36.82;16.72;98999.86;25219;1315;3026451;-62
2022/07/08 12:05:13;;;;;;;6.80;1.80;;;;;;;36.88;16.35;98997.55;25053;1315;3058013;-61
2022/07/08 12:07:42;;;;;;;7.30;2.10;;;;;;;37.04;16.77;98998.38;25260;1315;3028195;-61
2022/07/08 12:10:11;;;;;;;6.40;2.20;;;;;;;37.15;15.47;98993.62;25092;1315;3052581;-61
2022/07/08 12:13:05;;;;;;;7.50;1.90;;;;;;;37.30;15.64;98997.39;25075;1315;3055877;-62
2022/07/08 12:15:35;;;;;;;19.70;2.20;;;;;;;37.40;15.39;98990.39;25127;1316;3026577;-60